createdAt,value
2022-08-04T00:01:26.891Z,45.95
2022-08-04T00:02:48.220Z,45.78
2022-08-04T00:03:36.510Z,45.58
2022-08-04T00:04:23.446Z,45.91
2022-08-04T00:05:13.750Z,45.95
2022-08-04T00:05:57.677Z,46.05
2022-08-04T00:08:16.258Z,45.55
2022-08-04T00:09:03.787Z,46.04
2022-08-04T00:09:56.303Z,45.94
2022-08-04T00:10:45.174Z,45.60
2022-08-04T00:11:38.241Z,45.65
2022-08-04T00:12:31.244Z,45.80
2022-08-04T00:13:28.542Z,45.55
2022-08-04T00:14:20.894Z,46.03
2022-08-04T00:15:17.913Z,45.55
2022-08-04T00:16:11.076Z,45.43
2022-08-04T00:17:05.626Z,46.07
2022-08-04T00:17:58.751Z,45.77
2022-08-04T00:19:01.208Z,46.02
2022-08-04T00:24:10.310Z,45.88
2022-08-04T00:25:08.984Z,45.49
2022-08-04T00:27:23.152Z,45.80
2022-08-04T00:28:12.458Z,45.67
2022-08-04T00:28:57.572Z,45.99
2022-08-04T00:29:43.575Z,45.85
2022-08-04T00:30:30.004Z,45.45
2022-08-04T00:31:17.119Z,45.68
2022-08-04T00:33:03.351Z,45.84
2022-08-04T00:33:52.675Z,45.98
2022-08-04T00:34:38.632Z,46.00
2022-08-04T00:35:28.258Z,45.79
2022-08-04T00:36:15.364Z,45.52
2022-08-04T00:37:07.330Z,45.96
2022-08-04T00:40:22.278Z,45.65
2022-08-04T00:41:06.544Z,46.05
2022-08-04T00:42:10.933Z,46.01
2022-08-04T00:42:59.630Z,45.69
2022-08-04T00:43:52.176Z,45.68
2022-08-04T00:44:52.563Z,45.68
2022-08-04T00:46:15.852Z,45.91
2022-08-04T00:47:11.102Z,45.70
2022-08-04T00:48:08.948Z,46.09
2022-08-04T00:49:12.142Z,45.75
2022-08-04T00:50:44.594Z,45.87
2022-08-04T00:51:38.048Z,46.35
2022-08-04T00:52:32.223Z,45.83
2022-08-04T00:53:49.833Z,45.96
2022-08-04T00:54:37.541Z,46.17
2022-08-04T00:55:30.286Z,45.88
2022-08-04T00:56:12.090Z,45.80
2022-08-04T00:56:53.613Z,46.19
2022-08-04T00:57:48.981Z,46.23
2022-08-04T00:58:33.280Z,45.89
2022-08-04T00:59:14.662Z,45.71
2022-08-04T01:00:05.234Z,46.06
2022-08-04T01:00:58.208Z,46.21
2022-08-04T01:01:52.343Z,46.35
2022-08-04T01:02:43.733Z,46.27
2022-08-04T01:03:31.892Z,46.20
2022-08-04T01:04:22.059Z,46.00
2022-08-04T01:05:22.034Z,45.84
2022-08-04T01:06:18.834Z,45.99
2022-08-04T01:07:09.742Z,45.94
2022-08-04T01:08:32.913Z,45.87
2022-08-04T01:09:32.376Z,45.85
2022-08-04T01:10:34.512Z,46.12
2022-08-04T01:11:20.984Z,46.02
2022-08-04T01:12:23.312Z,45.95
2022-08-04T01:13:21.222Z,46.13
2022-08-04T01:14:08.334Z,45.80
2022-08-04T01:18:50.203Z,46.01
2022-08-04T01:19:59.189Z,46.18
2022-08-04T01:21:01.513Z,46.25
2022-08-04T01:21:57.209Z,46.17
2022-08-04T01:23:07.969Z,46.35
2022-08-04T01:24:04.143Z,46.14
2022-08-04T01:25:14.574Z,46.10
2022-08-04T01:26:43.712Z,46.50
2022-08-04T01:29:18.548Z,46.38
2022-08-04T01:31:12.943Z,46.22
2022-08-04T01:32:16.238Z,46.08
2022-08-04T01:33:23.040Z,45.85
2022-08-04T01:35:15.441Z,46.01
2022-08-04T01:36:10.030Z,46.04
2022-08-04T01:36:54.958Z,46.35
2022-08-04T01:37:47.597Z,46.14
2022-08-04T01:38:38.701Z,46.26
2022-08-04T01:39:31.716Z,45.72
2022-08-04T01:40:25.655Z,45.73
2022-08-04T01:41:32.441Z,45.59
2022-08-04T01:42:37.138Z,45.84
2022-08-04T01:43:28.415Z,45.90
2022-08-04T01:44:15.477Z,45.93
2022-08-04T01:45:03.275Z,46.03
2022-08-04T01:45:54.421Z,46.32
2022-08-04T01:46:46.762Z,46.36
2022-08-04T01:47:36.040Z,46.01
2022-08-04T01:48:34.934Z,46.39
2022-08-04T01:49:31.386Z,45.98
2022-08-04T01:51:52.839Z,46.45
2022-08-04T01:52:39.422Z,46.13
2022-08-04T01:53:30.968Z,46.00
2022-08-04T01:54:19.105Z,45.91
2022-08-04T01:55:11.234Z,46.28
2022-08-04T01:56:07.249Z,46.10
2022-08-04T01:57:37.591Z,45.96
2022-08-04T01:59:11.623Z,45.94
2022-08-04T01:59:59.683Z,46.17
2022-08-04T02:00:49.048Z,46.07
2022-08-04T02:01:38.031Z,45.74
2022-08-04T02:02:27.123Z,46.36
2022-08-04T02:03:15.433Z,46.21
2022-08-04T02:05:06.757Z,45.78
2022-08-04T02:06:03.913Z,46.04
2022-08-04T02:07:13.977Z,45.80
2022-08-04T02:08:29.058Z,46.21
2022-08-04T02:09:16.802Z,45.83
2022-08-04T02:10:09.359Z,45.82
2022-08-04T02:10:53.321Z,45.86
2022-08-04T02:11:43.058Z,45.89
2022-08-04T02:12:41.640Z,45.73
2022-08-04T02:13:31.194Z,46.18
2022-08-04T02:14:18.072Z,46.03
2022-08-04T02:16:36.638Z,45.97
2022-08-04T02:17:38.445Z,45.78
2022-08-04T02:18:33.041Z,45.89
2022-08-04T02:20:54.012Z,46.25
2022-08-04T02:21:58.379Z,46.24
2022-08-04T02:22:55.497Z,46.37
2022-08-04T02:27:19.361Z,46.07
2022-08-04T02:28:08.915Z,46.32
2022-08-04T02:29:22.657Z,46.11
2022-08-04T02:30:08.969Z,46.27
2022-08-04T02:31:17.131Z,46.24
2022-08-04T02:33:16.216Z,45.81
2022-08-04T02:34:34.731Z,45.79
2022-08-04T02:35:34.667Z,46.00
2022-08-04T02:36:31.903Z,46.09
2022-08-04T02:42:44.328Z,46.22
2022-08-04T02:43:51.981Z,45.80
2022-08-04T02:46:55.525Z,45.87
2022-08-04T02:48:29.107Z,45.80
2022-08-04T02:48:51.046Z,46.00
2022-08-04T02:49:37.468Z,45.78
2022-08-04T02:50:32.003Z,46.12
2022-08-04T02:51:19.496Z,45.95
2022-08-04T02:52:09.643Z,46.02
2022-08-04T02:53:00.679Z,45.87
2022-08-04T02:53:59.477Z,45.84
2022-08-04T02:54:56.655Z,46.21
2022-08-04T02:56:16.004Z,46.12
2022-08-04T02:57:01.048Z,46.02
2022-08-04T02:57:47.907Z,46.29
2022-08-04T02:58:33.581Z,46.07
2022-08-04T02:59:18.407Z,46.12
2022-08-04T03:00:06.226Z,45.92
2022-08-04T03:00:51.857Z,45.67
2022-08-04T03:01:57.645Z,46.07
2022-08-04T03:03:09.532Z,46.23
2022-08-04T03:03:56.952Z,45.91
2022-08-04T03:04:44.481Z,46.19
2022-08-04T03:05:31.198Z,45.77
2022-08-04T03:08:06.086Z,45.97
2022-08-04T03:08:53.256Z,45.79
2022-08-04T03:09:35.442Z,46.12
2022-08-04T03:10:30.113Z,46.17
2022-08-04T03:11:11.700Z,45.84
2022-08-04T03:12:00.803Z,45.81
2022-08-04T03:12:50.803Z,46.11
2022-08-04T03:15:13.930Z,45.97
2022-08-04T03:16:20.677Z,45.71
2022-08-04T03:17:21.548Z,46.05
2022-08-04T03:18:34.805Z,45.90
2022-08-04T03:19:44.116Z,45.61
2022-08-04T03:20:33.416Z,45.63
2022-08-04T03:21:36.826Z,45.68
2022-08-04T03:24:20.224Z,45.66
2022-08-04T03:25:09.271Z,45.66
2022-08-04T03:28:25.100Z,46.03
2022-08-04T03:29:08.380Z,45.87
2022-08-04T03:30:15.127Z,45.97
2022-08-04T03:31:35.251Z,45.76
2022-08-04T03:32:29.099Z,45.44
2022-08-04T03:33:14.428Z,45.58
2022-08-04T03:33:56.856Z,45.80
2022-08-04T03:34:50.282Z,45.91
2022-08-04T03:35:42.468Z,46.00
2022-08-04T03:36:30.271Z,45.71
2022-08-04T03:37:28.150Z,45.58
2022-08-04T03:38:44.352Z,45.94
2022-08-04T03:39:47.980Z,46.00
2022-08-04T03:40:37.966Z,45.96
2022-08-04T03:41:51.823Z,45.76
2022-08-04T03:42:32.977Z,45.61
2022-08-04T03:43:57.722Z,45.53
2022-08-04T03:45:40.416Z,46.02
2022-08-04T03:46:22.108Z,45.83
2022-08-04T03:47:10.038Z,45.59
2022-08-04T03:48:05.732Z,45.92
2022-08-04T03:48:40.758Z,45.73
2022-08-04T03:49:21.810Z,45.85
2022-08-04T03:50:09.973Z,46.04
2022-08-04T03:51:02.238Z,45.98
2022-08-04T03:51:42.859Z,45.89
2022-08-04T03:52:47.229Z,45.56
2022-08-04T03:53:32.155Z,45.41
2022-08-04T03:54:25.596Z,45.76
2022-08-04T03:55:03.960Z,45.58
2022-08-04T03:55:43.800Z,45.96
2022-08-04T03:56:25.742Z,45.83
2022-08-04T03:57:16.796Z,45.90
2022-08-04T03:58:19.652Z,45.56
2022-08-04T03:59:18.868Z,45.50
2022-08-04T04:00:13.023Z,45.74
2022-08-04T04:00:49.515Z,45.39
2022-08-04T04:01:57.803Z,45.51
2022-08-04T04:02:40.003Z,45.86
2022-08-04T04:03:28.413Z,45.31
2022-08-04T04:04:03.613Z,45.40
2022-08-04T04:05:03.387Z,45.65
2022-08-04T04:05:59.830Z,45.78
2022-08-04T04:06:53.813Z,45.67
2022-08-04T04:07:35.768Z,45.42
2022-08-04T04:08:29.222Z,45.75
2022-08-04T04:09:16.323Z,45.79
2022-08-04T04:10:14.563Z,45.43
2022-08-04T04:10:51.188Z,45.70
2022-08-04T04:11:57.334Z,45.83
2022-08-04T04:12:34.037Z,45.91
2022-08-04T04:13:32.428Z,45.51
2022-08-04T04:14:26.793Z,45.95
2022-08-04T04:15:23.769Z,45.49
2022-08-04T04:16:18.125Z,45.48
2022-08-04T04:17:20.430Z,45.45
2022-08-04T04:18:08.441Z,45.83
2022-08-04T04:18:57.017Z,45.48
2022-08-04T04:19:32.431Z,45.71
2022-08-04T04:20:13.740Z,45.54
2022-08-04T04:21:07.766Z,45.71
2022-08-04T04:22:01.893Z,45.82
2022-08-04T04:22:53.360Z,45.50
2022-08-04T04:23:45.831Z,45.81
2022-08-04T04:24:39.759Z,45.46
2022-08-04T04:25:32.862Z,45.61
2022-08-04T04:26:14.313Z,45.82
2022-08-04T04:27:07.910Z,45.47
2022-08-04T04:27:47.083Z,45.62
2022-08-04T04:28:45.835Z,45.68
2022-08-04T04:29:42.696Z,45.47
2022-08-04T04:30:25.230Z,45.80
2022-08-04T04:31:08.989Z,45.59
2022-08-04T04:32:01.425Z,45.95
2022-08-04T04:32:36.666Z,45.71
2022-08-04T04:33:14.697Z,45.49
2022-08-04T04:33:56.029Z,45.87
2022-08-04T04:34:35.029Z,45.89
2022-08-04T04:35:10.665Z,45.74
2022-08-04T04:35:52.174Z,45.99
2022-08-04T04:36:32.771Z,45.90
2022-08-04T04:37:11.507Z,45.79
2022-08-04T04:38:07.655Z,45.82
2022-08-04T04:38:47.634Z,45.90
2022-08-04T04:39:29.130Z,45.95
2022-08-04T04:40:06.947Z,45.59
2022-08-04T04:41:00.602Z,46.02
2022-08-04T04:41:51.362Z,45.79
2022-08-04T04:42:31.565Z,45.87
2022-08-04T04:43:06.833Z,45.62
2022-08-04T04:43:52.607Z,45.58
2022-08-04T04:44:45.847Z,45.93
2022-08-04T04:45:34.053Z,45.90
2022-08-04T04:46:10.253Z,45.91
2022-08-04T04:47:03.037Z,45.87
2022-08-04T04:48:08.991Z,45.54
2022-08-04T04:48:43.418Z,45.67
2022-08-04T04:49:31.597Z,45.66
2022-08-04T04:50:07.049Z,45.67
2022-08-04T04:50:44.984Z,45.26
2022-08-04T04:51:23.831Z,45.50
2022-08-04T04:52:11.851Z,45.89
2022-08-04T04:53:02.298Z,45.79
2022-08-04T04:54:00.165Z,45.37
2022-08-04T04:54:35.340Z,45.46
2022-08-04T04:55:25.046Z,45.69
2022-08-04T04:56:22.215Z,45.32
2022-08-04T04:57:08.231Z,45.86
2022-08-04T04:57:53.895Z,45.91
2022-08-04T04:58:37.768Z,45.42
2022-08-04T04:59:19.648Z,45.63
2022-08-04T04:59:57.910Z,45.76
2022-08-04T05:00:48.334Z,45.43
2022-08-04T05:01:29.071Z,45.40
2022-08-04T05:02:26.542Z,45.90
2022-08-04T05:03:04.921Z,45.94
2022-08-04T05:04:06.903Z,45.88
2022-08-04T05:04:57.223Z,45.51
2022-08-04T05:05:32.440Z,45.78
2022-08-04T05:06:07.532Z,45.84
2022-08-04T05:06:45.820Z,45.66
2022-08-04T05:07:48.187Z,45.73
2022-08-04T05:08:44.706Z,45.52
2022-08-04T05:09:30.329Z,45.71
2022-08-04T05:10:27.080Z,45.66
2022-08-04T05:11:11.453Z,45.83
2022-08-04T05:11:46.737Z,45.54
2022-08-04T05:13:20.421Z,45.93
2022-08-04T05:14:37.449Z,45.94
2022-08-04T05:14:41.760Z,46.03
2022-08-04T05:15:22.619Z,45.92
2022-08-04T05:16:04.893Z,46.04
2022-08-04T05:16:44.659Z,45.72
2022-08-04T05:17:20.800Z,46.13
2022-08-04T05:17:58.058Z,46.14
2022-08-04T05:18:38.755Z,45.66
2022-08-04T05:19:29.242Z,46.31
2022-08-04T05:20:07.347Z,46.00
2022-08-04T05:20:44.789Z,46.27
2022-08-04T05:21:20.453Z,46.32
2022-08-04T05:22:02.257Z,46.25
2022-08-04T05:22:42.185Z,46.29
2022-08-04T05:23:19.801Z,45.87
2022-08-04T05:23:58.268Z,45.95
2022-08-04T05:24:35.633Z,46.18
2022-08-04T05:25:32.045Z,45.98
2022-08-04T05:26:18.507Z,46.31
2022-08-04T05:27:03.768Z,46.70
2022-08-04T05:27:41.784Z,46.48
2022-08-04T05:28:18.791Z,46.20
2022-08-04T05:28:56.138Z,46.67
2022-08-04T05:29:33.828Z,46.68
2022-08-04T05:30:12.649Z,46.49
2022-08-04T05:31:05.420Z,46.28
2022-08-04T05:31:45.297Z,46.57
2022-08-04T05:32:22.609Z,46.56
2022-08-04T05:33:02.854Z,46.42
2022-08-04T05:34:36.635Z,46.41
2022-08-04T05:35:52.132Z,46.61
2022-08-04T05:36:41.620Z,46.15
2022-08-04T05:37:30.732Z,46.49
2022-08-04T05:38:22.257Z,46.16
2022-08-04T05:39:12.893Z,46.06
2022-08-04T05:40:07.377Z,46.03
2022-08-04T05:40:58.692Z,45.98
2022-08-04T05:41:55.352Z,46.35
2022-08-04T05:42:46.313Z,46.07
2022-08-04T05:43:34.914Z,45.99
2022-08-04T05:44:23.960Z,46.35
2022-08-04T05:45:18.003Z,46.26
2022-08-04T05:46:05.763Z,46.07
2022-08-04T05:46:57.115Z,46.05
2022-08-04T05:47:47.976Z,46.32
2022-08-04T05:48:37.839Z,46.31
2022-08-04T05:49:28.863Z,45.95
2022-08-04T05:50:25.068Z,45.97
2022-08-04T05:51:16.562Z,45.95
2022-08-04T05:52:09.479Z,46.01
2022-08-04T05:53:01.280Z,45.93
2022-08-04T05:53:49.556Z,46.19
2022-08-04T05:54:41.114Z,46.18
2022-08-04T05:55:56.666Z,46.32
2022-08-04T05:56:38.505Z,46.15
2022-08-04T05:57:35.157Z,46.36
2022-08-04T05:58:27.768Z,46.50
2022-08-04T05:59:19.087Z,46.13
2022-08-04T06:00:25.134Z,46.30
2022-08-04T06:01:13.134Z,46.33
2022-08-04T06:02:03.803Z,46.39
2022-08-04T06:03:02.263Z,45.97
2022-08-04T06:03:54.812Z,46.32
2022-08-04T06:04:43.915Z,46.33
2022-08-04T06:05:36.274Z,46.15
2022-08-04T06:06:27.959Z,46.45
2022-08-04T06:07:21.467Z,46.14
2022-08-04T06:08:15.672Z,46.22
2022-08-04T06:09:05.815Z,46.68
2022-08-04T06:09:56.442Z,46.60
2022-08-04T06:10:47.693Z,46.72
2022-08-04T06:12:01.951Z,46.50
2022-08-04T06:12:42.505Z,46.62
2022-08-04T06:13:47.508Z,46.83
2022-08-04T06:14:38.823Z,46.91
2022-08-04T06:15:29.243Z,46.99
2022-08-04T06:16:29.105Z,47.05
2022-08-04T06:19:57.099Z,46.68
2022-08-04T06:19:57.271Z,46.74
2022-08-04T06:20:03.461Z,47.14
2022-08-04T06:20:41.130Z,47.21
2022-08-04T06:21:38.266Z,46.79
2022-08-04T06:22:28.072Z,47.26
2022-08-04T06:23:19.628Z,47.66
2022-08-04T06:24:16.686Z,47.27
2022-08-04T06:25:08.342Z,47.31
2022-08-04T06:26:00.169Z,47.29
2022-08-04T06:26:52.514Z,47.51
2022-08-04T06:27:44.430Z,47.57
2022-08-04T06:28:37.549Z,47.37
2022-08-04T06:30:32.640Z,47.65
2022-08-04T06:32:31.762Z,47.40
2022-08-04T06:32:40.066Z,47.30
2022-08-04T06:33:31.388Z,47.56
2022-08-04T06:34:23.981Z,47.26
2022-08-04T06:35:13.863Z,47.43
2022-08-04T06:36:03.097Z,47.47
2022-08-04T06:36:54.644Z,47.46
2022-08-04T06:37:47.403Z,47.25
2022-08-04T06:38:38.062Z,47.70
2022-08-04T06:39:36.942Z,47.48
2022-08-04T06:40:31.900Z,47.26
2022-08-04T06:41:23.915Z,47.30
2022-08-04T06:42:21.646Z,47.68
2022-08-04T06:43:17.689Z,47.66
2022-08-04T06:44:08.084Z,47.16
2022-08-04T06:44:59.060Z,47.19
2022-08-04T06:45:50.456Z,47.21
2022-08-04T06:46:40.091Z,47.39
2022-08-04T06:47:34.391Z,47.11
2022-08-04T06:48:24.722Z,47.33
2022-08-04T06:49:22.799Z,47.50
2022-08-04T06:51:24.724Z,47.42
2022-08-04T06:51:27.840Z,47.34
2022-08-04T06:53:09.604Z,47.62
2022-08-04T06:54:01.940Z,47.56
2022-08-04T06:54:53.939Z,48.39
2022-08-04T06:55:41.168Z,48.26
2022-08-04T06:56:36.961Z,48.54
2022-08-04T06:57:28.316Z,48.93
2022-08-04T06:58:19.688Z,49.03
2022-08-04T06:59:11.162Z,49.70
2022-08-04T07:00:01.736Z,49.55
2022-08-04T07:00:56.984Z,49.65
2022-08-04T07:01:46.925Z,49.29
2022-08-04T07:02:33.528Z,48.21
2022-08-04T07:03:21.463Z,48.84
2022-08-04T07:04:11.711Z,48.41
2022-08-04T07:05:07.242Z,48.44
2022-08-04T07:06:05.643Z,48.34
2022-08-04T07:06:55.765Z,48.02
2022-08-04T07:07:57.108Z,47.62
2022-08-04T07:08:48.194Z,46.67
2022-08-04T07:09:40.928Z,47.18
2022-08-04T07:10:32.550Z,46.85
2022-08-04T07:13:07.761Z,47.46
2022-08-04T07:14:02.432Z,47.22
2022-08-04T07:14:53.560Z,47.26
2022-08-04T07:15:49.592Z,47.38
2022-08-04T07:16:45.662Z,47.61
2022-08-04T07:17:37.638Z,47.60
2022-08-04T07:18:29.895Z,47.43
2022-08-04T07:19:20.495Z,47.55
2022-08-04T07:20:13.918Z,47.65
2022-08-04T07:21:06.039Z,47.09
2022-08-04T07:22:59.743Z,46.81
2022-08-04T07:23:50.989Z,47.14
2022-08-04T07:24:49.547Z,46.62
2022-08-04T07:25:57.152Z,46.30
2022-08-04T07:26:52.445Z,46.70
2022-08-04T07:27:48.633Z,46.38
2022-08-04T07:28:37.705Z,46.44
2022-08-04T07:29:29.343Z,46.58
2022-08-04T07:30:24.384Z,46.62
2022-08-04T07:31:34.254Z,46.29
2022-08-04T07:33:04.879Z,46.27
2022-08-04T07:34:16.434Z,46.03
2022-08-04T07:35:06.132Z,46.80
2022-08-04T07:36:09.998Z,46.83
2022-08-04T07:37:00.289Z,46.34
2022-08-04T07:37:49.903Z,46.50
2022-08-04T07:38:48.788Z,46.72
2022-08-04T07:39:47.794Z,46.36
2022-08-04T07:40:38.122Z,46.56
2022-08-04T07:41:36.189Z,46.21
2022-08-04T07:43:06.450Z,46.35
2022-08-04T07:43:59.238Z,46.53
2022-08-04T07:44:51.703Z,46.33
2022-08-04T07:45:40.917Z,46.71
2022-08-04T07:46:37.124Z,46.57
2022-08-04T07:47:27.930Z,46.64
2022-08-04T07:48:18.123Z,46.19
2022-08-04T07:49:10.304Z,46.07
2022-08-04T07:50:02.578Z,46.27
2022-08-04T07:50:56.416Z,45.88
2022-08-04T07:51:46.247Z,45.82
2022-08-04T07:52:39.875Z,46.01
2022-08-04T07:53:52.813Z,45.70
2022-08-04T07:54:38.702Z,46.03
2022-08-04T07:55:31.710Z,45.48
2022-08-04T07:56:28.683Z,45.21
2022-08-04T07:57:40.382Z,45.35
2022-08-04T07:58:30.393Z,45.11
2022-08-04T07:59:21.670Z,44.78
2022-08-04T08:00:11.378Z,44.43
2022-08-04T08:01:00.808Z,44.52
2022-08-04T08:01:54.216Z,44.25
2022-08-04T08:02:46.334Z,44.78
2022-08-04T08:03:36.848Z,44.44
2022-08-04T08:04:27.630Z,44.22
2022-08-04T08:05:18.236Z,44.00
2022-08-04T08:06:17.963Z,43.74
2022-08-04T08:07:24.250Z,43.93
2022-08-04T08:08:15.401Z,43.83
2022-08-04T08:09:12.536Z,43.37
2022-08-04T08:10:05.188Z,43.30
2022-08-04T08:10:57.133Z,43.54
2022-08-04T08:12:37.593Z,43.39
2022-08-04T08:13:03.575Z,43.93
2022-08-04T08:13:57.717Z,43.92
2022-08-04T08:14:48.567Z,43.19
2022-08-04T08:15:38.994Z,43.46
2022-08-04T08:16:28.408Z,43.73
2022-08-04T08:17:18.000Z,43.53
2022-08-04T08:18:11.014Z,43.22
2022-08-04T08:19:01.889Z,43.64
2022-08-04T08:19:52.368Z,43.23
2022-08-04T08:20:45.649Z,43.17
2022-08-04T08:21:37.475Z,43.49
2022-08-04T08:22:48.726Z,43.57
2022-08-04T08:23:41.375Z,43.43
2022-08-04T08:24:33.556Z,43.38
2022-08-04T08:25:26.026Z,43.62
2022-08-04T08:26:15.948Z,43.91
2022-08-04T08:27:12.335Z,43.63
2022-08-04T08:28:10.709Z,43.67
2022-08-04T08:29:08.356Z,43.55
2022-08-04T08:29:59.300Z,43.62
2022-08-04T08:30:53.129Z,43.90
2022-08-04T08:31:57.338Z,44.18
2022-08-04T08:32:49.652Z,43.66
2022-08-04T08:33:41.687Z,43.91
2022-08-04T08:34:40.183Z,43.72
2022-08-04T08:35:32.250Z,44.16
2022-08-04T08:36:25.110Z,43.63
2022-08-04T08:37:08.042Z,43.70
2022-08-04T08:38:01.997Z,44.00
2022-08-04T08:38:49.921Z,43.63
2022-08-04T08:39:51.902Z,43.89
2022-08-04T08:40:46.313Z,43.57
2022-08-04T08:41:33.011Z,43.21
2022-08-04T08:42:38.214Z,43.12
2022-08-04T08:44:04.956Z,43.18
2022-08-04T08:44:49.113Z,43.70
2022-08-04T08:45:56.536Z,43.23
2022-08-04T08:46:49.021Z,43.51
2022-08-04T08:48:00.033Z,43.25
2022-08-04T08:48:59.386Z,43.53
2022-08-04T08:50:02.948Z,43.65
2022-08-04T08:50:43.540Z,43.46
2022-08-04T08:51:37.002Z,43.40
2022-08-04T08:53:01.503Z,43.34
2022-08-04T08:53:47.900Z,43.20
2022-08-04T08:54:54.744Z,43.45
2022-08-04T08:55:57.486Z,42.86
2022-08-04T08:56:44.623Z,43.19
2022-08-04T08:57:25.698Z,43.01
2022-08-04T08:58:25.353Z,43.04
2022-08-04T08:59:48.953Z,43.70
2022-08-04T09:00:44.487Z,43.23
2022-08-04T09:01:36.114Z,43.21
2022-08-04T09:02:33.279Z,43.26
2022-08-04T09:03:16.217Z,43.34
2022-08-04T09:04:23.860Z,43.29
2022-08-04T09:05:22.694Z,43.20
2022-08-04T09:06:10.457Z,43.52
2022-08-04T09:07:05.228Z,43.47
2022-08-04T09:08:04.405Z,43.13
2022-08-04T09:09:00.001Z,43.08
2022-08-04T09:09:47.039Z,43.29
2022-08-04T09:10:48.332Z,43.34
2022-08-04T09:11:35.434Z,43.28
2022-08-04T09:12:16.603Z,43.23
2022-08-04T09:12:59.889Z,43.31
2022-08-04T09:13:51.554Z,43.23
2022-08-04T09:14:41.154Z,43.74
2022-08-04T09:15:40.737Z,43.61
2022-08-04T09:16:31.229Z,43.35
2022-08-04T09:17:22.454Z,43.23
2022-08-04T09:18:15.511Z,43.27
2022-08-04T09:19:03.859Z,43.00
2022-08-04T09:20:00.568Z,43.32
2022-08-04T09:20:58.604Z,43.39
2022-08-04T11:41:47.301Z,39.18
2022-08-04T11:42:28.148Z,39.35
2022-08-04T11:43:02.366Z,39.28
2022-08-04T11:44:02.326Z,39.38
2022-08-04T11:44:41.429Z,38.97
2022-08-04T11:45:16.516Z,39.38
2022-08-04T11:45:52.062Z,39.70
2022-08-04T11:46:24.747Z,39.36
2022-08-04T11:46:57.466Z,39.49
2022-08-04T11:47:29.453Z,39.52
2022-08-04T11:48:01.578Z,39.71
2022-08-04T11:48:35.676Z,39.44
2022-08-04T11:49:07.950Z,39.68
2022-08-04T11:49:56.766Z,39.97
2022-08-04T11:50:53.609Z,39.66
2022-08-04T11:51:25.857Z,39.26
2022-08-04T11:51:57.316Z,39.61
2022-08-04T11:52:28.750Z,38.90
2022-08-04T11:53:00.221Z,39.41
2022-08-04T11:53:36.789Z,39.36
2022-08-04T11:54:08.482Z,40.16
2022-08-04T11:54:39.933Z,39.33
2022-08-04T11:55:11.856Z,39.51
2022-08-04T11:56:07.670Z,39.70
2022-08-04T11:56:38.192Z,39.57
2022-08-04T11:57:09.904Z,39.67
2022-08-04T11:57:41.247Z,39.62
2022-08-04T11:58:12.589Z,39.41
2022-08-04T11:58:50.228Z,39.88
2022-08-04T11:59:22.485Z,39.48
2022-08-04T11:59:54.913Z,39.13
2022-08-04T12:00:27.867Z,39.85
2022-08-04T12:01:11.484Z,39.42
2022-08-04T12:02:01.450Z,39.11
2022-08-04T12:02:32.978Z,39.41
2022-08-04T12:03:10.564Z,39.51
2022-08-04T12:04:04.210Z,39.60
2022-08-04T12:04:35.978Z,39.25
2022-08-04T12:05:07.599Z,39.03
2022-08-04T12:05:44.279Z,39.20
2022-08-04T12:06:36.309Z,39.20
2022-08-04T12:07:31.115Z,39.55
2022-08-04T12:08:38.902Z,39.18
2022-08-04T12:09:33.563Z,39.63
2022-08-04T12:10:07.596Z,39.32
2022-08-04T12:10:45.072Z,39.61
2022-08-04T12:11:28.367Z,39.32
2022-08-04T12:12:07.423Z,39.28
2022-08-04T12:12:50.892Z,39.60
2022-08-04T12:13:40.961Z,39.65
2022-08-04T12:14:12.316Z,39.25
2022-08-04T12:14:58.359Z,39.67
2022-08-04T12:15:30.699Z,39.87
2022-08-04T12:16:18.185Z,39.57
2022-08-04T12:17:02.028Z,39.20
2022-08-04T12:17:52.474Z,39.18
2022-08-04T12:18:27.689Z,39.11
2022-08-04T12:19:01.440Z,39.32
2022-08-04T12:20:01.345Z,39.79
2022-08-04T12:20:32.230Z,39.37
2022-08-04T12:21:23.509Z,39.71
2022-08-04T12:21:58.570Z,39.96
2022-08-04T12:22:32.278Z,39.56
2022-08-04T12:23:03.623Z,40.06
2022-08-04T12:23:38.979Z,40.07
2022-08-04T12:24:36.668Z,40.00
2022-08-04T12:25:08.058Z,39.35
2022-08-04T12:25:44.734Z,39.88
2022-08-04T12:26:24.893Z,39.67
2022-08-04T12:26:57.250Z,39.46
2022-08-04T12:27:40.159Z,39.75
2022-08-04T12:28:24.462Z,39.63
2022-08-04T12:29:13.553Z,39.76
2022-08-04T12:30:53.989Z,39.78
2022-08-04T12:31:00.105Z,40.09
2022-08-04T12:31:36.515Z,39.96
2022-08-04T12:32:16.980Z,39.62
2022-08-04T12:33:00.055Z,40.21
2022-08-04T12:34:03.792Z,39.72
2022-08-04T12:34:32.123Z,39.93
2022-08-04T12:35:13.614Z,39.71
2022-08-04T12:36:11.395Z,40.13
2022-08-04T12:36:41.622Z,40.35
2022-08-04T12:37:31.512Z,39.97
2022-08-04T12:38:03.836Z,39.92
2022-08-04T12:38:35.308Z,40.08
2022-08-04T12:39:14.200Z,40.32
2022-08-04T12:40:27.773Z,40.45
2022-08-04T12:40:37.370Z,40.40
2022-08-04T12:41:08.812Z,40.41
2022-08-04T12:41:43.147Z,40.07
2022-08-04T12:42:28.141Z,40.07
2022-08-04T12:43:13.599Z,40.15
2022-08-04T12:43:45.044Z,40.00
2022-08-04T12:44:37.542Z,39.98
2022-08-04T12:45:08.028Z,40.43
2022-08-04T12:45:58.316Z,40.31
2022-08-04T12:46:29.757Z,40.04
2022-08-04T12:47:26.403Z,40.58
2022-08-04T12:47:53.244Z,40.09
2022-08-04T12:48:24.674Z,40.53
2022-08-04T12:48:59.355Z,40.35
2022-08-04T12:49:31.597Z,40.31
2022-08-04T12:50:04.168Z,40.05
2022-08-04T12:50:35.710Z,40.49
2022-08-04T12:51:08.172Z,40.23
2022-08-04T12:52:06.635Z,40.17
2022-08-04T12:53:02.102Z,40.60
2022-08-04T12:53:51.356Z,40.69
2022-08-04T12:54:28.372Z,40.33
2022-08-04T12:55:00.429Z,40.20
2022-08-04T12:55:33.869Z,40.32
2022-08-04T12:56:05.523Z,40.70
2022-08-04T12:56:37.163Z,40.19
2022-08-04T12:57:08.625Z,40.76
2022-08-04T12:57:40.395Z,40.65
2022-08-04T12:58:13.192Z,40.51
2022-08-04T12:58:45.277Z,40.81
2022-08-04T12:59:16.645Z,40.74
2022-08-04T12:59:47.993Z,40.46
2022-08-04T13:00:33.209Z,40.67
2022-08-04T13:02:10.545Z,40.50
2022-08-04T13:02:10.838Z,40.46
2022-08-04T13:02:43.187Z,40.44
2022-08-04T13:03:15.796Z,40.59
2022-08-04T13:03:50.050Z,40.53
2022-08-04T13:04:29.679Z,40.97
2022-08-04T13:05:02.772Z,40.49
2022-08-04T13:05:34.697Z,40.43
2022-08-04T13:06:07.420Z,40.67
2022-08-04T13:06:38.922Z,40.51
2022-08-04T13:07:11.444Z,40.36
2022-08-04T13:07:46.223Z,40.39
2022-08-04T13:08:19.767Z,40.89
2022-08-04T13:08:51.216Z,40.65
2022-08-04T13:09:22.936Z,40.97
2022-08-04T13:09:54.337Z,41.02
2022-08-04T13:10:30.101Z,40.47
2022-08-04T13:11:02.199Z,40.74
2022-08-04T13:11:34.750Z,40.42
2022-08-04T13:12:11.594Z,40.54
2022-08-04T13:12:49.570Z,40.94
2022-08-04T13:13:21.681Z,40.98
2022-08-04T13:14:17.324Z,40.67
2022-08-04T13:14:45.312Z,40.62
2022-08-04T13:15:18.498Z,41.12
2022-08-04T13:15:57.025Z,40.98
2022-08-04T13:16:29.213Z,41.01
2022-08-04T13:17:00.706Z,40.80
2022-08-04T13:18:07.488Z,40.52
2022-08-04T13:18:47.087Z,40.83
2022-08-04T13:19:18.848Z,40.58
2022-08-04T13:19:53.075Z,40.86
2022-08-04T13:20:26.271Z,41.01
2022-08-04T13:21:20.227Z,40.85
2022-08-04T13:22:03.236Z,40.98
2022-08-04T13:22:35.038Z,40.84
2022-08-04T13:23:08.938Z,40.93
2022-08-04T13:24:20.435Z,40.96
2022-08-04T13:24:34.206Z,40.82
2022-08-04T13:26:41.473Z,41.34
2022-08-04T13:26:43.579Z,41.06
2022-08-04T13:26:56.271Z,41.26
2022-08-04T13:27:27.817Z,40.95
2022-08-04T13:28:19.682Z,41.00
2022-08-04T13:28:51.905Z,41.32
2022-08-04T13:29:59.495Z,41.25
2022-08-04T13:30:25.667Z,41.14
2022-08-04T13:30:59.174Z,40.97
2022-08-04T13:31:35.647Z,41.53
2022-08-04T13:32:07.509Z,41.62
2022-08-04T13:32:38.924Z,41.33
2022-08-04T13:33:11.770Z,41.41
2022-08-04T13:33:43.607Z,41.38
2022-08-04T13:34:18.766Z,41.54
2022-08-04T13:34:54.279Z,41.34
2022-08-04T13:35:30.574Z,41.66
2022-08-04T13:36:20.376Z,41.65
2022-08-04T13:36:54.107Z,41.27
2022-08-04T13:37:26.449Z,41.83
2022-08-04T13:37:58.309Z,41.46
2022-08-04T13:38:29.728Z,41.16
2022-08-04T13:39:08.202Z,41.64
2022-08-04T13:39:39.694Z,41.17
2022-08-04T13:40:26.865Z,41.54
2022-08-04T13:41:03.403Z,41.70
2022-08-04T13:41:36.252Z,41.83
2022-08-04T13:42:12.723Z,41.70
2022-08-04T13:42:46.716Z,41.68
2022-08-04T13:43:48.446Z,41.43
2022-08-04T13:44:21.509Z,41.87
2022-08-04T13:44:54.547Z,41.82
2022-08-04T13:45:34.959Z,41.79
2022-08-04T13:46:06.811Z,41.96